Time;durP1;ratioP1;P1;durP2;ratioP2;P2;SDS_P1;SDS_P2;PMS_P1;PMS_P2;Temp;Humidity;BMP_temperature;BMP_pressure;BME280_temperature;BME280_humidity;BME280_pressure;Samples;Min_cycle;Max_cycle;Signal;HPM_P1;HPM_P2
2022/07/14 00:02:17;;;;;;;15.23;2.83;;;14.90;99.90;;;;;;5010864;28;20076;-84
2022/07/14 00:04:43;;;;;;;6.05;3.42;;;14.90;99.90;;;;;;5011224;28;20084;-84
2022/07/14 00:07:09;;;;;;;2.28;1.92;;;14.90;99.90;;;;;;5010971;28;20025;-83
2022/07/14 00:09:34;;;;;;;6.90;2.17;;;14.90;99.90;;;;;;5010695;28;20338;-82
2022/07/14 00:12:00;;;;;;;6.78;2.17;;;14.90;99.90;;;;;;5009587;28;20385;-83
2022/07/14 00:14:26;;;;;;;13.00;2.00;;;14.90;99.90;;;;;;5026161;28;20033;-82
2022/07/14 00:16:52;;;;;;;8.88;2.10;;;14.90;99.90;;;;;;5011357;28;20469;-84
2022/07/14 00:19:18;;;;;;;8.25;1.92;;;14.80;99.90;;;;;;5010604;28;20080;-83
2022/07/14 00:21:44;;;;;;;5.43;2.10;;;14.80;99.90;;;;;;5012610;28;20036;-83
2022/07/14 00:24:11;;;;;;;2.95;2.15;;;14.80;99.90;;;;;;5013674;28;20030;-84
2022/07/14 00:26:39;;;;;;;9.98;2.30;;;14.80;99.90;;;;;;5012035;28;20036;-82
2022/07/14 00:29:06;;;;;;;9.02;2.28;;;14.80;99.90;;;;;;5010463;28;20109;-82
2022/07/14 00:31:31;;;;;;;6.95;1.85;;;14.70;99.90;;;;;;5025698;28;20034;-83
2022/07/14 00:33:58;;;;;;;4.93;2.10;;;14.60;99.90;;;;;;5010547;28;20018;-84
2022/07/14 00:36:26;;;;;;;10.25;1.88;;;14.60;99.90;;;;;;5010837;28;20388;-82
2022/07/14 00:38:52;;;;;;;6.78;2.05;;;14.50;99.90;;;;;;5010717;28;20036;-81
2022/07/14 00:41:18;;;;;;;3.22;2.13;;;14.50;99.90;;;;;;5010676;28;20320;-81
2022/07/14 00:43:44;;;;;;;18.98;2.20;;;14.50;99.90;;;;;;5025943;28;20021;-81
2022/07/14 00:46:10;;;;;;;3.85;1.90;;;14.40;99.90;;;;;;5009736;28;20092;-84
2022/07/14 00:48:35;;;;;;;7.95;2.25;;;14.40;99.90;;;;;;5010857;28;20428;-83
2022/07/14 00:51:01;;;;;;;10.68;2.17;;;14.30;99.90;;;;;;5010782;28;20049;-82
2022/07/14 00:53:27;;;;;;;8.10;2.00;;;14.30;99.90;;;;;;5010997;28;20030;-84
2022/07/14 00:55:53;;;;;;;10.38;1.88;;;14.20;99.90;;;;;;5010808;28;20090;-82
2022/07/14 00:58:18;;;;;;;3.83;2.13;;;14.20;99.90;;;;;;5009596;28;20539;-82
2022/07/14 01:00:44;;;;;;;5.18;1.88;;;14.20;99.90;;;;;;5009582;28;20022;-81
2022/07/14 01:03:10;;;;;;;3.65;2.00;;;14.20;99.90;;;;;;5011020;28;20017;-82
2022/07/14 01:05:37;;;;;;;10.70;2.10;;;14.20;99.90;;;;;;5010772;28;20083;-82
2022/07/14 01:08:03;;;;;;;5.85;2.00;;;14.20;99.90;;;;;;5010607;28;20018;-82
2022/07/14 01:10:29;;;;;;;4.30;2.10;;;14.30;99.90;;;;;;5009239;28;20016;-83
2022/07/14 01:12:59;;;;;;;17.50;2.65;;;14.30;99.90;;;;;;5010629;28;20052;-82
2022/07/14 01:15:25;;;;;;;7.50;2.30;;;14.30;99.90;;;;;;5009507;28;20029;-81
2022/07/14 01:17:51;;;;;;;7.72;2.03;;;14.30;99.90;;;;;;5010092;28;20346;-82
2022/07/14 01:20:18;;;;;;;4.63;2.15;;;14.30;99.90;;;;;;5010650;28;20028;-84
2022/07/14 01:22:47;;;;;;;6.70;1.98;;;14.30;99.90;;;;;;5010482;28;20053;-82
2022/07/14 01:25:14;;;;;;;4.60;2.30;;;14.40;99.90;;;;;;5009155;28;20030;-82
2022/07/14 01:27:40;;;;;;;6.10;1.80;;;14.40;99.90;;;;;;5025334;28;20049;-83
2022/07/14 01:30:10;;;;;;;4.60;2.33;;;14.40;99.90;;;;;;5009418;28;20026;-85
2022/07/14 01:32:36;;;;;;;14.25;2.08;;;14.40;99.90;;;;;;5009512;28;20029;-82
2022/07/14 01:35:06;;;;;;;10.77;2.20;;;14.40;99.90;;;;;;5009208;28;20026;-83
2022/07/14 01:37:32;;;;;;;6.75;2.17;;;14.40;99.90;;;;;;5012697;28;20060;-83
2022/07/14 01:39:57;;;;;;;3.85;2.08;;;14.40;99.90;;;;;;5014491;28;20021;-84
2022/07/14 01:42:23;;;;;;;7.97;2.72;;;14.50;99.90;;;;;;5020385;28;20057;-82
2022/07/14 01:44:49;;;;;;;3.35;1.80;;;14.40;99.90;;;;;;5028153;28;20034;-82
2022/07/14 01:47:14;;;;;;;6.78;2.08;;;14.50;99.90;;;;;;5028708;28;20124;-83
2022/07/14 01:49:40;;;;;;;3.17;1.98;;;14.60;99.90;;;;;;5029344;28;20022;-82
2022/07/14 01:52:06;;;;;;;5.15;1.95;;;14.70;99.90;;;;;;5029486;28;20372;-81
2022/07/14 01:54:32;;;;;;;4.22;1.70;;;14.70;99.90;;;;;;5030843;28;20294;-83
2022/07/14 01:56:59;;;;;;;3.75;1.92;;;14.70;99.90;;;;;;5030546;28;20018;-81
2022/07/14 01:59:25;;;;;;;3.65;1.92;;;14.70;99.90;;;;;;5047458;28;20022;-83
2022/07/14 02:01:51;;;;;;;2.92;2.00;;;14.60;99.90;;;;;;5033310;28;20049;-82
2022/07/14 02:04:20;;;;;;;8.68;1.85;;;14.50;99.90;;;;;;5022206;28;20550;-83
2022/07/14 02:06:52;;;;;;;6.53;1.83;;;14.60;99.90;;;;;;5013531;28;20032;-81
2022/07/14 02:09:19;;;;;;;6.10;2.20;;;14.50;99.90;;;;;;5012867;28;20424;-82
2022/07/14 02:14:30;;;;;;;7.82;2.30;;;14.60;99.90;;;;;;4993570;28;20540;-82
2022/07/14 02:16:56;;;;;;;4.13;1.88;;;14.70;99.90;;;;;;5011620;28;20033;-82
2022/07/14 02:19:26;;;;;;;2.60;1.85;;;14.70;99.90;;;;;;5013144;28;20026;-83
2022/07/14 02:21:53;;;;;;;5.75;2.10;;;14.80;99.90;;;;;;5012760;28;20060;-82
2022/07/14 02:24:20;;;;;;;4.68;2.25;;;14.80;99.90;;;;;;5012937;28;20026;-82
2022/07/14 02:26:46;;;;;;;7.95;2.42;;;14.90;99.90;;;;;;5013112;28;20117;-83
2022/07/14 02:29:12;;;;;;;6.30;2.00;;;14.80;99.90;;;;;;5012658;28;20131;-82
2022/07/14 02:31:38;;;;;;;10.82;2.25;;;14.90;99.90;;;;;;5012724;28;20625;-82
2022/07/14 02:34:04;;;;;;;3.35;2.30;;;14.90;99.90;;;;;;5011656;28;20030;-81
2022/07/14 02:36:31;;;;;;;7.78;2.38;;;14.90;99.90;;;;;;5010496;28;20370;-82
2022/07/14 02:38:57;;;;;;;4.05;2.10;;;15.00;99.90;;;;;;5011355;28;20036;-82
2022/07/14 02:41:22;;;;;;;7.70;2.50;;;14.90;99.90;;;;;;5011423;28;20104;-81
2022/07/14 02:43:48;;;;;;;5.78;2.88;;;15.00;99.90;;;;;;5011541;28;20109;-83
2022/07/14 02:46:14;;;;;;;7.90;2.55;;;15.00;99.90;;;;;;5026606;28;20030;-82
2022/07/14 02:48:40;;;;;;;7.15;2.28;;;15.10;99.90;;;;;;5010657;28;20049;-83
2022/07/14 02:51:08;;;;;;;3.47;2.08;;;15.10;99.90;;;;;;5011182;28;20022;-82
2022/07/14 02:53:35;;;;;;;7.85;2.28;;;15.20;99.90;;;;;;5012537;28;20734;-82
2022/07/14 02:56:07;;;;;;;5.85;1.70;;;15.20;99.90;;;;;;5012277;28;20017;-84
2022/07/14 02:58:34;;;;;;;3.97;2.30;;;15.20;99.90;;;;;;5010798;28;20030;-82
2022/07/14 03:01:00;;;;;;;14.18;2.55;;;15.20;99.90;;;;;;5012323;28;20076;-82
2022/07/14 03:03:27;;;;;;;10.52;2.30;;;15.30;99.90;;;;;;5027603;28;20053;-81
2022/07/14 03:05:52;;;;;;;7.82;2.33;;;15.20;99.90;;;;;;5010975;28;20030;-83
2022/07/14 03:08:18;;;;;;;3.75;2.08;;;15.20;99.90;;;;;;5012095;28;20030;-81
2022/07/14 03:10:44;;;;;;;4.13;1.98;;;15.20;99.90;;;;;;5012167;28;20049;-83
2022/07/14 03:13:09;;;;;;;4.28;1.80;;;15.10;99.90;;;;;;5011812;28;20148;-81
2022/07/14 03:15:36;;;;;;;12.90;2.35;;;15.20;99.90;;;;;;5012199;28;20385;-82
2022/07/14 03:18:02;;;;;;;1.83;1.58;;;15.20;99.90;;;;;;5012011;28;20061;-82
2022/07/14 03:20:28;;;;;;;3.80;2.03;;;15.20;99.90;;;;;;5011984;28;20058;-82
2022/07/14 03:22:54;;;;;;;5.82;1.73;;;15.10;99.90;;;;;;5011970;28;20033;-83
2022/07/14 03:25:20;;;;;;;1.80;1.60;;;15.20;99.90;;;;;;5012123;28;20034;-83
2022/07/14 03:27:47;;;;;;;7.78;2.63;;;15.20;99.90;;;;;;5011706;28;20133;-82
2022/07/14 03:30:13;;;;;;;12.43;2.22;;;15.20;99.90;;;;;;5011806;28;20049;-83
2022/07/14 03:32:39;;;;;;;18.95;2.58;;;15.30;99.90;;;;;;5012139;28;20429;-82
2022/07/14 03:35:07;;;;;;;8.93;2.20;;;15.30;99.90;;;;;;5011754;28;20014;-83
2022/07/14 03:37:34;;;;;;;8.07;2.03;;;15.20;99.90;;;;;;5011648;28;20543;-84
2022/07/14 03:40:00;;;;;;;3.72;1.60;;;15.20;99.90;;;;;;5011434;28;20121;-82
2022/07/14 03:42:25;;;;;;;11.48;1.90;;;15.20;99.90;;;;;;5010061;28;20030;-82
2022/07/14 03:44:51;;;;;;;9.10;1.90;;;15.20;99.90;;;;;;5011617;28;20397;-83
2022/07/14 03:47:17;;;;;;;4.28;2.00;;;15.20;99.90;;;;;;5011762;28;20054;-81
2022/07/14 03:49:43;;;;;;;6.18;1.90;;;15.20;99.90;;;;;;5011564;28;20025;-83
2022/07/14 03:52:09;;;;;;;6.15;2.10;;;15.20;99.90;;;;;;5011216;28;20018;-82
2022/07/14 03:54:36;;;;;;;10.18;1.85;;;15.20;99.90;;;;;;5010256;28;20473;-83
2022/07/14 03:57:03;;;;;;;8.10;1.90;;;15.20;99.90;;;;;;5008904;28;20557;-82
2022/07/14 03:59:28;;;;;;;3.83;1.98;;;15.20;99.90;;;;;;5010982;28;20358;-82
2022/07/14 04:01:54;;;;;;;9.55;2.00;;;15.20;99.90;;;;;;5010738;28;20106;-83
2022/07/14 04:04:20;;;;;;;11.02;2.03;;;15.20;99.90;;;;;;5010762;28;20385;-83
2022/07/14 04:06:45;;;;;;;6.25;1.90;;;15.20;99.90;;;;;;5011067;28;20298;-83
2022/07/14 04:09:11;;;;;;;9.35;2.83;;;15.20;99.90;;;;;;5011069;28;20040;-84
2022/07/14 04:11:37;;;;;;;2.88;1.80;;;15.20;99.90;;;;;;5009485;28;20060;-82
2022/07/14 04:14:02;;;;;;;4.88;2.40;;;15.20;99.90;;;;;;5011971;28;20022;-84
2022/07/14 04:16:28;;;;;;;9.45;2.35;;;15.20;99.90;;;;;;5009087;28;20076;-82
2022/07/14 04:18:54;;;;;;;5.32;1.67;;;15.20;99.90;;;;;;5009816;28;20030;-83
2022/07/14 04:21:19;;;;;;;13.02;2.20;;;15.30;99.90;;;;;;5013577;28;20040;-82
2022/07/14 04:23:45;;;;;;;17.77;2.03;;;15.40;99.90;;;;;;5011627;28;20044;-81
2022/07/14 04:26:11;;;;;;;13.30;2.65;;;15.40;99.90;;;;;;5010401;28;20128;-83
2022/07/14 04:28:37;;;;;;;5.05;2.38;;;15.50;99.90;;;;;;5010452;28;20545;-83
2022/07/14 04:31:03;;;;;;;8.70;2.30;;;15.60;99.90;;;;;;5010137;28;20022;-82
2022/07/14 04:33:29;;;;;;;6.53;1.88;;;15.50;99.90;;;;;;5012032;28;20029;-82
2022/07/14 04:35:54;;;;;;;10.13;3.08;;;15.50;99.90;;;;;;5012082;28;20049;-83
2022/07/14 04:38:21;;;;;;;4.43;1.92;;;15.50;99.90;;;;;;5011301;28;20054;-82
2022/07/14 04:40:51;;;;;;;6.82;2.08;;;15.50;99.90;;;;;;5011089;28;20101;-83
2022/07/14 04:43:17;;;;;;;11.27;2.17;;;15.70;99.90;;;;;;5010822;28;20025;-82
2022/07/14 04:45:44;;;;;;;7.50;2.13;;;15.70;99.90;;;;;;5012562;28;20030;-82
2022/07/14 04:48:10;;;;;;;8.18;2.55;;;15.80;99.90;;;;;;5011296;28;20105;-83
2022/07/14 04:53:20;;;;;;;61.80;38.13;;;15.90;99.90;;;;;;5010838;28;20032;-83
2022/07/14 04:55:46;;;;;;;31.23;13.07;;;15.90;99.90;;;;;;5010676;28;20022;-82
2022/07/14 04:58:12;;;;;;;13.13;5.20;;;16.00;99.90;;;;;;5012074;28;20112;-82
2022/07/14 05:00:37;;;;;;;6.35;2.25;;;16.10;99.90;;;;;;5015544;28;20088;-83
2022/07/14 05:03:03;;;;;;;7.05;2.83;;;16.20;99.90;;;;;;5011217;28;20076;-83
2022/07/14 05:05:29;;;;;;;6.97;4.22;;;16.30;99.90;;;;;;5010893;28;20030;-82
2022/07/14 05:07:54;;;;;;;5.35;3.47;;;16.40;99.90;;;;;;5009994;28;20033;-82
2022/07/14 05:10:21;;;;;;;7.57;3.08;;;16.60;99.90;;;;;;5009414;28;20022;-84
2022/07/14 05:12:46;;;;;;;7.72;2.97;;;16.80;99.90;;;;;;5012796;28;20076;-84
2022/07/14 05:15:12;;;;;;;6.30;2.40;;;16.80;99.90;;;;;;5014977;28;20022;-83
2022/07/14 05:17:38;;;;;;;7.22;2.35;;;17.10;99.90;;;;;;5016734;28;20088;-84
2022/07/14 05:20:04;;;;;;;8.63;2.20;;;17.30;99.90;;;;;;5016427;28;20481;-83
2022/07/14 05:22:37;;;;;;;7.35;2.58;;;17.50;99.90;;;;;;5029316;28;20231;-83
2022/07/14 05:25:11;;;;;;;4.97;2.15;;;17.70;99.90;;;;;;5014014;28;20032;-82
2022/07/14 05:27:37;;;;;;;5.18;1.90;;;18.00;99.90;;;;;;5013697;28;20120;-84
2022/07/14 05:30:08;;;;;;;8.00;2.40;;;18.30;99.90;;;;;;5014074;28;20033;-82
2022/07/14 05:32:35;;;;;;;5.30;2.50;;;18.50;99.90;;;;;;5014135;28;20026;-82
2022/07/14 05:35:02;;;;;;;4.18;2.33;;;18.70;99.90;;;;;;5013785;28;20088;-83
2022/07/14 05:37:27;;;;;;;1.60;1.50;;;18.90;99.90;;;;;;5013752;28;20037;-83
2022/07/14 05:39:53;;;;;;;1.92;1.63;;;19.10;99.90;;;;;;5013847;28;20037;-84
2022/07/14 05:42:20;;;;;;;3.00;1.75;;;19.10;99.90;;;;;;5013901;28;20026;-82
2022/07/14 05:44:46;;;;;;;4.03;1.88;;;19.10;99.90;;;;;;5012639;28;20045;-84
2022/07/14 05:47:11;;;;;;;1.70;1.52;;;19.20;99.90;;;;;;5014660;28;20125;-82
2022/07/14 05:49:44;;;;;;;6.28;1.92;;;19.30;99.90;;;;;;5014111;28;20447;-83
2022/07/14 05:52:13;;;;;;;1.55;1.40;;;19.10;99.90;;;;;;5012660;28;20125;-84
2022/07/14 05:54:40;;;;;;;2.03;1.80;;;19.10;99.90;;;;;;5012298;28;20032;-84
2022/07/14 05:57:08;;;;;;;3.92;1.40;;;19.30;99.90;;;;;;5000536;28;20026;-82
2022/07/14 05:59:34;;;;;;;5.15;1.88;;;19.40;99.90;;;;;;4994538;28;20022;-82
2022/07/14 06:02:01;;;;;;;3.20;1.77;;;19.60;99.90;;;;;;4994188;28;20041;-84
2022/07/14 06:04:27;;;;;;;1.52;1.38;;;19.80;99.90;;;;;;4994231;28;20160;-81
2022/07/14 06:06:52;;;;;;;3.83;2.75;;;20.00;99.90;;;;;;4993928;28;20030;-82
2022/07/14 06:09:18;;;;;;;2.72;1.92;;;20.20;99.90;;;;;;4993958;28;20436;-81
2022/07/14 06:11:45;;;;;;;2.40;1.25;;;20.50;99.90;;;;;;5005291;28;20018;-84
2022/07/14 06:14:11;;;;;;;2.35;2.15;;;20.70;99.90;;;;;;5013054;28;20027;-83
2022/07/14 06:16:37;;;;;;;4.20;1.80;;;20.70;99.90;;;;;;5013175;28;20022;-82
2022/07/14 06:19:03;;;;;;;4.18;2.17;;;20.90;99.90;;;;;;5013165;28;20048;-83
2022/07/14 06:21:29;;;;;;;5.03;1.70;;;21.00;99.90;;;;;;5013024;28;20021;-84
2022/07/14 06:23:55;;;;;;;1.63;1.50;;;21.20;99.90;;;;;;5013143;28;20079;-81
2022/07/14 06:26:20;;;;;;;2.50;1.85;;;21.30;99.90;;;;;;5012241;28;20018;-82
2022/07/14 06:28:49;;;;;;;5.38;1.90;;;21.40;99.90;;;;;;5013004;28;20213;-82
2022/07/14 06:31:15;;;;;;;10.13;1.60;;;21.60;99.90;;;;;;5013386;28;20424;-82
2022/07/14 06:33:40;;;;;;;4.40;1.90;;;21.60;99.10;;;;;;5011716;28;20075;-83
2022/07/14 06:36:08;;;;;;;7.22;1.85;;;21.70;98.70;;;;;;5013053;28;20030;-81
2022/07/14 06:38:34;;;;;;;1.60;1.40;;;21.90;99.10;;;;;;5012135;28;20032;-84
2022/07/14 06:41:00;;;;;;;3.00;1.45;;;22.00;98.30;;;;;;5012528;28;20060;-81
2022/07/14 06:43:26;;;;;;;6.13;1.70;;;22.20;97.70;;;;;;5012753;28;20413;-82
2022/07/14 06:45:52;;;;;;;2.05;1.52;;;22.30;98.00;;;;;;5012578;28;20587;-83
2022/07/14 06:48:18;;;;;;;3.88;1.58;;;22.30;97.40;;;;;;5012601;28;20501;-84
2022/07/14 06:50:44;;;;;;;4.57;1.77;;;22.40;97.90;;;;;;5012460;28;20056;-83
2022/07/14 06:53:10;;;;;;;1.50;1.20;;;22.40;98.70;;;;;;5011001;28;20022;-83
2022/07/14 06:55:37;;;;;;;1.45;1.35;;;22.50;97.50;;;;;;5012539;28;20324;-82
2022/07/14 06:58:03;;;;;;;4.68;1.50;;;22.50;98.10;;;;;;5012364;28;20018;-84
2022/07/14 07:00:29;;;;;;;5.22;1.40;;;22.60;97.30;;;;;;5012267;28;20508;-83
2022/07/14 07:02:55;;;;;;;3.88;1.48;;;22.80;97.40;;;;;;5012411;28;20028;-84
2022/07/14 07:08:06;;;;;;;3.35;1.20;;;23.20;96.40;;;;;;5012352;28;20028;-82
2022/07/14 07:10:40;;;;;;;2.05;1.63;;;23.30;98.20;;;;;;5012617;28;20080;-84
2022/07/14 07:13:07;;;;;;;2.53;1.40;;;23.40;96.10;;;;;;5011594;28;20556;-86
2022/07/14 07:15:35;;;;;;;2.38;1.48;;;23.50;96.70;;;;;;5012493;28;20366;-82
2022/07/14 07:18:01;;;;;;;3.80;1.50;;;23.80;98.00;;;;;;5026904;28;20030;-82
2022/07/14 07:20:27;;;;;;;4.93;1.42;;;23.90;97.10;;;;;;5028601;28;20045;-83
2022/07/14 07:22:53;;;;;;;1.83;1.15;;;24.20;97.60;;;;;;5030697;28;20080;-82
2022/07/14 07:25:20;;;;;;;8.18;2.13;;;24.40;95.70;;;;;;5030900;28;20037;-84
2022/07/14 07:27:45;;;;;;;2.85;1.20;;;24.50;93.40;;;;;;5028634;28;20030;-82
2022/07/14 07:30:11;;;;;;;3.30;1.50;;;24.60;92.90;;;;;;5012356;28;20034;-84
2022/07/14 07:32:37;;;;;;;3.55;1.20;;;24.60;93.10;;;;;;5012451;28;20026;-85
2022/07/14 07:35:04;;;;;;;6.10;1.20;;;24.60;93.20;;;;;;5011403;28;20022;-84
2022/07/14 07:37:30;;;;;;;2.65;1.17;;;24.60;92.90;;;;;;5011915;28;20433;-84
2022/07/14 07:40:00;;;;;;;1.85;1.27;;;24.40;92.40;;;;;;5011583;28;20037;-82
2022/07/14 07:42:26;;;;;;;5.65;1.40;;;24.50;92.70;;;;;;5011175;28;20029;-84
2022/07/14 07:44:53;;;;;;;1.40;1.30;;;24.60;92.90;;;;;;5011759;28;20036;-84
2022/07/14 07:47:19;;;;;;;6.50;1.00;;;24.80;93.90;;;;;;5011493;28;20130;-81
2022/07/14 07:49:44;;;;;;;1.17;1.08;;;24.90;92.70;;;;;;5011643;28;20057;-82
2022/07/14 07:52:10;;;;;;;3.25;1.00;;;25.00;92.20;;;;;;5011685;28;20022;-83
2022/07/14 07:54:36;;;;;;;5.18;1.13;;;25.10;91.20;;;;;;5011279;28;20428;-83
2022/07/14 07:57:02;;;;;;;4.35;1.10;;;25.10;92.00;;;;;;5011578;28;20493;-81
2022/07/14 07:59:28;;;;;;;6.43;1.10;;;25.10;86.30;;;;;;5011356;28;20037;-84
2022/07/14 08:01:53;;;;;;;4.97;0.88;;;25.40;87.60;;;;;;5011289;28;20053;-84
2022/07/14 08:04:19;;;;;;;1.65;1.00;;;25.50;84.60;;;;;;5010249;28;20026;-80
2022/07/14 08:06:46;;;;;;;10.13;1.75;;;25.70;83.40;;;;;;5009409;28;20034;-84
2022/07/14 08:09:12;;;;;;;11.75;1.23;;;25.80;80.50;;;;;;5011066;28;20022;-82
2022/07/14 08:11:41;;;;;;;1.95;0.90;;;25.90;82.20;;;;;;5011268;28;20062;-81
2022/07/14 08:14:47;;;;;;;3.17;0.88;;;26.00;80.70;;;;;;5009868;28;20407;-81
2022/07/14 08:16:56;;;;;;;1.20;1.02;;;26.20;85.80;;;;;;5010989;28;20080;-82
2022/07/14 08:19:22;;;;;;;0.80;0.80;;;26.20;83.10;;;;;;5011190;28;20033;-83
2022/07/14 08:21:48;;;;;;;10.93;1.10;;;26.30;84.00;;;;;;5009707;28;20026;-81
2022/07/14 08:24:14;;;;;;;2.58;1.00;;;26.60;76.20;;;;;;5010900;28;20018;-83
2022/07/14 08:26:40;;;;;;;4.40;1.00;;;26.50;75.30;;;;;;5010980;28;20025;-84
2022/07/14 08:29:09;;;;;;;2.65;1.00;;;26.30;76.10;;;;;;5010719;28;20028;-82
2022/07/14 08:31:35;;;;;;;2.60;1.27;;;26.50;77.70;;;;;;5011098;28;20049;-82
2022/07/14 08:34:01;;;;;;;1.90;1.00;;;26.50;77.60;;;;;;5010895;28;20432;-84
2022/07/14 08:36:27;;;;;;;1.50;1.17;;;26.40;76.20;;;;;;5010861;28;20054;-83
2022/07/14 08:38:52;;;;;;;3.58;1.10;;;26.40;74.40;;;;;;5009684;28;20026;-82
2022/07/14 08:41:18;;;;;;;2.35;1.00;;;26.30;79.40;;;;;;5010848;28;20455;-82
2022/07/14 08:43:47;;;;;;;0.63;0.60;;;26.20;77.80;;;;;;5010185;28;20444;-83
2022/07/14 08:46:15;;;;;;;1.20;1.10;;;26.30;75.50;;;;;;5010644;28;20026;-84
2022/07/14 08:48:41;;;;;;;2.67;1.08;;;26.30;79.50;;;;;;5013647;28;20437;-84
2022/07/14 08:51:07;;;;;;;4.80;0.82;;;26.50;82.20;;;;;;5012018;28;20022;-81
2022/07/14 08:53:33;;;;;;;6.43;1.05;;;26.70;78.40;;;;;;5013592;28;20022;-82
2022/07/14 08:56:00;;;;;;;7.45;0.93;;;26.80;78.70;;;;;;5012223;28;20477;-84
2022/07/14 08:58:26;;;;;;;6.90;0.98;;;26.90;78.40;;;;;;5013380;28;20032;-83
2022/07/14 09:00:52;;;;;;;1.55;1.02;;;26.90;68.50;;;;;;5014075;28;20037;-82
2022/07/14 09:03:18;;;;;;;1.95;1.10;;;27.40;75.30;;;;;;5012875;28;20028;-82
2022/07/14 09:05:45;;;;;;;3.70;0.85;;;27.60;70.60;;;;;;5013341;28;20029;-84
2022/07/14 09:08:12;;;;;;;3.17;0.80;;;27.60;68.30;;;;;;5013080;28;20026;-81
2022/07/14 09:10:40;;;;;;;1.00;0.90;;;27.80;68.80;;;;;;5013247;28;20105;-81
2022/07/14 09:13:17;;;;;;;0.75;0.70;;;27.90;67.90;;;;;;5012851;28;20076;-84
2022/07/14 09:15:46;;;;;;;0.82;0.82;;;28.10;65.70;;;;;;5012906;28;20050;-83
2022/07/14 09:18:26;;;;;;;2.30;0.90;;;28.00;69.40;;;;;;5011815;28;20022;-83
2022/07/14 09:20:54;;;;;;;3.25;0.80;;;28.20;65.30;;;;;;5011577;28;20064;-83
2022/07/14 09:23:35;;;;;;;1.38;0.80;;;28.50;69.50;;;;;;5013151;28;20080;-83
2022/07/14 09:26:19;;;;;;;5.18;1.48;;;28.10;61.00;;;;;;5012745;28;20022;-84
2022/07/14 09:28:47;;;;;;;2.65;0.65;;;28.50;61.50;;;;;;5011610;28;20036;-83
2022/07/14 09:31:24;;;;;;;2.15;0.60;;;28.60;67.20;;;;;;5012867;28;20013;-86
2022/07/14 09:33:58;;;;;;;1.00;0.80;;;28.60;63.00;;;;;;5012811;28;20022;-82
2022/07/14 09:36:32;;;;;;;1.67;0.73;;;28.70;61.90;;;;;;5012721;28;20014;-84
2022/07/14 09:39:09;;;;;;;1.98;0.50;;;28.80;63.10;;;;;;5012765;28;20042;-84
2022/07/14 09:41:52;;;;;;;6.10;0.90;;;29.10;63.70;;;;;;5011003;28;20481;-82
2022/07/14 09:44:19;;;;;;;3.55;0.70;;;29.10;58.70;;;;;;5011402;28;20477;-84
2022/07/14 09:46:57;;;;;;;5.82;0.60;;;29.30;67.40;;;;;;4971390;28;1179533;-82
2022/07/14 09:49:26;;;;;;;4.00;0.73;;;29.50;60.00;;;;;;5012376;28;20481;-82
2022/07/14 09:51:59;;;;;;;3.75;0.82;;;29.40;54.50;;;;;;5012341;28;20042;-83
2022/07/14 09:54:41;;;;;;;5.63;1.05;;;29.60;53.90;;;;;;5013946;28;20404;-82
2022/07/14 09:57:08;;;;;;;3.40;0.93;;;29.50;56.50;;;;;;5013459;28;20381;-84
2022/07/14 09:59:53;;;;;;;8.20;0.88;;;29.70;59.50;;;;;;5013583;28;20026;-83
2022/07/14 10:02:26;;;;;;;4.65;0.98;;;29.80;53.80;;;;;;5013484;28;20095;-83
2022/07/14 10:05:05;;;;;;;1.85;0.68;;;29.80;55.50;;;;;;5013599;28;20441;-85
2022/07/14 10:07:38;;;;;;;5.60;0.80;;;29.90;51.10;;;;;;5013237;28;20022;-82
2022/07/14 10:10:15;;;;;;;;;;;30.40;55.30;;;;;;5028923;28;20032;-86
2022/07/14 10:12:41;;;;;;;2.38;1.02;;;30.30;55.10;;;;;;4993597;28;19948;-82
2022/07/14 10:15:13;;;;;;;5.10;0.90;;;30.50;54.10;;;;;;5009136;28;20062;-84
2022/07/14 10:17:41;;;;;;;6.57;0.85;;;30.40;48.90;;;;;;5008680;28;20065;-84
2022/07/14 10:20:10;;;;;;;3.60;0.70;;;30.50;53.00;;;;;;5008870;28;20037;-84
2022/07/14 10:22:36;;;;;;;3.05;1.13;;;30.70;49.80;;;;;;5008003;28;20096;-83
2022/07/14 10:25:09;;;;;;;5.50;0.88;;;30.50;45.90;;;;;;5011788;28;20077;-83
2022/07/14 10:27:42;;;;;;;4.38;0.90;;;30.80;57.20;;;;;;5013391;28;20022;-82
2022/07/14 10:30:09;;;;;;;2.22;0.90;;;30.90;46.00;;;;;;5012452;28;20034;-83
2022/07/14 10:32:59;;;;;;;1.10;0.60;;;30.80;45.10;;;;;;5011705;28;20112;-83
2022/07/14 10:35:44;;;;;;;6.82;0.80;;;30.70;52.00;;;;;;5012902;28;20022;-84
2022/07/14 10:38:30;;;;;;;3.08;0.80;;;30.90;48.00;;;;;;5011783;28;20110;-83
2022/07/14 10:41:14;;;;;;;3.35;0.80;;;30.90;44.70;;;;;;5013171;28;20362;-82
2022/07/14 10:43:46;;;;;;;1.55;0.82;;;31.10;46.30;;;;;;5012963;28;20044;-82
2022/07/14 10:46:32;;;;;;;17.40;1.20;;;31.20;46.50;;;;;;5011670;28;20030;-84
2022/07/14 10:48:57;;;;;;;2.05;0.75;;;31.00;47.20;;;;;;5012569;28;20444;-84
2022/07/14 10:51:32;;;;;;;5.95;0.70;;;31.10;45.70;;;;;;5011229;28;20027;-84
2022/07/14 10:54:16;;;;;;;2.40;0.70;;;31.10;46.70;;;;;;5012476;28;20384;-84
2022/07/14 10:56:43;;;;;;;4.13;1.15;;;31.20;48.50;;;;;;5007728;28;20022;-82
2022/07/14 10:59:28;;;;;;;0.77;0.75;;;31.30;51.30;;;;;;5002186;28;20021;-81
2022/07/14 11:02:14;;;;;;;4.25;0.80;;;31.30;50.00;;;;;;5014111;28;20314;-83
2022/07/14 11:07:43;;;;;;;0.85;0.60;;;31.10;48.30;;;;;;5010816;28;20103;-81
2022/07/14 11:10:15;;;;;;;5.47;0.85;;;31.40;46.80;;;;;;5011412;28;20473;-84
2022/07/14 11:12:59;;;;;;;2.65;0.93;;;31.60;48.30;;;;;;5010257;28;20492;-83
2022/07/14 11:15:50;;;;;;;3.28;1.00;;;31.30;46.00;;;;;;5012381;28;20096;-84
2022/07/14 11:18:21;;;;;;;2.53;0.60;;;31.20;44.50;;;;;;5012111;28;20407;-81
2022/07/14 11:20:51;;;;;;;3.05;0.90;;;31.20;45.00;;;;;;5012343;28;20404;-83
2022/07/14 11:23:24;;;;;;;1.00;0.90;;;31.40;44.50;;;;;;5011809;28;20034;-82
2022/07/14 11:25:52;;;;;;;2.45;1.05;;;31.30;46.60;;;;;;5010811;28;20576;-82
2022/07/14 11:28:37;;;;;;;3.17;0.90;;;31.60;46.50;;;;;;5011779;28;20164;-84
2022/07/14 11:31:21;;;;;;;0.90;0.70;;;31.60;49.60;;;;;;5011734;28;20026;-84
2022/07/14 11:36:59;;;;;;;1.92;0.90;;;31.40;45.50;;;;;;5011810;28;20507;-82
2022/07/14 11:39:28;;;;;;;0.95;0.73;;;31.50;45.90;;;;;;5012018;28;20018;-82
2022/07/14 11:42:08;;;;;;;3.15;0.93;;;31.60;45.00;;;;;;5011621;28;20025;-83
2022/07/14 11:44:38;;;;;;;2.85;0.60;;;31.50;45.90;;;;;;5010381;28;20038;-82
2022/07/14 11:47:05;;;;;;;4.50;0.73;;;31.50;46.00;;;;;;5010966;28;20398;-82
2022/07/14 11:49:34;;;;;;;2.38;1.00;;;31.60;45.20;;;;;;5011615;28;20037;-83
2022/07/14 11:52:02;;;;;;;0.90;0.70;;;31.70;45.20;;;;;;5011377;28;20030;-85
2022/07/14 11:54:27;;;;;;;2.55;0.77;;;31.70;47.70;;;;;;5010219;28;20052;-84
2022/07/14 11:57:07;;;;;;;2.15;0.82;;;31.80;46.30;;;;;;5011511;28;20109;-84
2022/07/14 11:59:34;;;;;;;7.43;1.17;;;31.60;47.60;;;;;;5011007;28;20026;-82
2022/07/14 12:02:14;;;;;;;1.17;0.80;;;31.80;49.10;;;;;;5011507;28;20049;-82
2022/07/14 12:04:57;;;;;;;3.20;0.73;;;32.10;46.90;;;;;;5011156;28;20022;-85
2022/07/14 12:07:26;;;;;;;2.10;0.80;;;32.60;46.80;;;;;;5009740;28;20104;-83
2022/07/14 12:09:53;;;;;;;1.30;0.95;;;32.80;47.20;;;;;;5011702;28;20033;-85
2022/07/14 12:12:20;;;;;;;3.78;1.00;;;32.70;45.00;;;;;;5011571;28;20083;-84
2022/07/14 12:14:49;;;;;;;2.40;0.70;;;33.50;46.40;;;;;;5011243;28;20112;-82
2022/07/14 12:17:16;;;;;;;5.88;0.63;;;34.20;47.90;;;;;;5011434;28;20022;-85
2022/07/14 12:19:42;;;;;;;4.93;0.80;;;34.80;42.50;;;;;;5009560;28;20552;-83
2022/07/14 12:22:08;;;;;;;1.63;0.52;;;35.00;40.30;;;;;;5009802;28;20128;-83
2022/07/14 12:24:34;;;;;;;4.90;0.88;;;35.50;42.90;;;;;;5011206;28;20014;-84
2022/07/14 12:27:05;;;;;;;7.70;0.90;;;35.50;41.30;;;;;;5011032;28;20041;-84
2022/07/14 12:29:32;;;;;;;6.03;0.73;;;35.90;41.30;;;;;;5011075;28;20034;-84
2022/07/14 12:31:59;;;;;;;3.20;0.45;;;36.10;41.40;;;;;;5011121;28;20033;-83
2022/07/14 12:34:26;;;;;;;4.40;0.80;;;36.50;40.80;;;;;;5010212;28;20017;-85
2022/07/14 12:36:56;;;;;;;2.97;0.60;;;36.70;41.00;;;;;;5012383;28;20465;-85
2022/07/14 12:39:22;;;;;;;1.42;0.88;;;36.90;39.90;;;;;;5012429;28;20037;-82
2022/07/14 12:41:48;;;;;;;4.00;0.70;;;37.40;40.00;;;;;;5013512;28;20449;-83
2022/07/14 12:44:14;;;;;;;4.00;0.47;;;37.70;37.90;;;;;;5010913;28;20026;-83
2022/07/14 12:46:40;;;;;;;9.00;0.85;;;37.40;38.50;;;;;;5010974;28;20041;-85
2022/07/14 12:49:07;;;;;;;2.85;0.77;;;37.10;36.80;;;;;;5010670;28;20046;-81
2022/07/14 12:51:36;;;;;;;2.45;0.43;;;36.50;40.00;;;;;;5010509;28;20022;-84
2022/07/14 12:54:21;;;;;;;5.72;1.08;;;38.10;38.50;;;;;;5010499;28;20018;-82
2022/07/14 12:56:49;;;;;;;3.50;0.50;;;37.70;37.20;;;;;;5010232;28;20045;-82
2022/07/14 12:59:17;;;;;;;5.93;0.50;;;38.10;37.80;;;;;;5010770;28;20432;-83
2022/07/14 13:01:47;;;;;;;0.65;0.60;;;38.40;36.90;;;;;;5010688;28;20481;-82
2022/07/14 13:04:28;;;;;;;2.65;0.75;;;38.70;36.20;;;;;;5010619;28;20470;-82
2022/07/14 13:06:55;;;;;;;1.90;1.10;;;40.20;36.90;;;;;;5010336;28;20026;-81